Time;durP1;ratioP1;P1;durP2;ratioP2;P2;SDS_P1;SDS_P2;PMS_P1;PMS_P2;Temp;Humidity;BMP_temperature;BMP_pressure;BME280_temperature;BME280_humidity;BME280_pressure;Samples;Min_cycle;Max_cycle;Signal;HPM_P1;HPM_P2
2020/12/26 00:01:17;;;;;;;17.17;8.15;;;2.70;99.90;;;;;;5054896;28;20021;-79
2020/12/26 00:03:43;;;;;;;17.10;7.63;;;2.80;99.90;;;;;;5057690;28;20031;-79
2020/12/26 00:06:16;;;;;;;13.55;8.13;;;2.70;99.90;;;;;;5061954;28;20032;-79
2020/12/26 00:08:42;;;;;;;15.32;8.05;;;2.80;99.90;;;;;;5068461;28;20074;-79
2020/12/26 00:11:09;;;;;;;14.95;7.32;;;2.70;99.90;;;;;;5054840;28;20078;-79
2020/12/26 00:13:35;;;;;;;13.68;7.78;;;2.80;99.90;;;;;;5072776;28;20103;-79
2020/12/26 00:16:04;;;;;;;13.27;7.15;;;2.80;99.90;;;;;;5072280;28;20028;-79
2020/12/26 00:18:29;;;;;;;13.20;7.20;;;2.90;99.90;;;;;;5054725;28;20028;-79
2020/12/26 00:20:55;;;;;;;14.88;8.00;;;2.90;99.90;;;;;;5075123;28;20137;-79
2020/12/26 00:23:20;;;;;;;15.95;7.30;;;2.90;99.90;;;;;;5072641;28;20021;-79
2020/12/26 00:25:46;;;;;;;11.18;6.50;;;2.90;99.90;;;;;;5072289;28;20158;-79
2020/12/26 00:28:11;;;;;;;14.93;6.57;;;2.90;99.90;;;;;;5072328;28;20081;-79
2020/12/26 00:30:37;;;;;;;11.43;6.45;;;2.90;99.90;;;;;;5072273;28;20029;-79
2020/12/26 00:33:02;;;;;;;9.70;6.03;;;3.00;99.90;;;;;;5072454;28;20024;-79
2020/12/26 00:35:28;;;;;;;14.32;6.63;;;3.00;99.90;;;;;;5072118;28;20093;-79
2020/12/26 00:37:53;;;;;;;13.20;6.43;;;3.00;99.90;;;;;;5054112;28;20017;-79
2020/12/26 00:40:19;;;;;;;14.00;6.45;;;3.00;99.90;;;;;;5072796;28;20016;-79
2020/12/26 00:42:44;;;;;;;15.85;5.95;;;3.00;99.90;;;;;;5064616;28;20475;-79
2020/12/26 00:45:10;;;;;;;14.05;5.72;;;3.00;99.90;;;;;;5056958;28;20031;-79
2020/12/26 00:47:35;;;;;;;15.27;7.50;;;3.00;99.90;;;;;;5072684;28;20070;-79
2020/12/26 00:50:01;;;;;;;14.98;6.40;;;3.10;99.90;;;;;;5079647;28;20049;-79
2020/12/26 00:52:28;;;;;;;13.85;6.13;;;3.10;99.90;;;;;;5071942;28;20024;-79
2020/12/26 00:54:54;;;;;;;10.32;6.05;;;3.10;99.90;;;;;;5071661;28;20468;-79
2020/12/26 00:57:19;;;;;;;16.02;6.88;;;3.10;99.90;;;;;;5058942;28;20021;-79
2020/12/26 00:59:45;;;;;;;12.60;6.05;;;3.10;99.90;;;;;;5054261;28;20025;-79
2020/12/26 01:02:10;;;;;;;10.20;6.10;;;3.10;99.90;;;;;;5053921;28;20380;-79
2020/12/26 01:04:36;;;;;;;13.65;5.97;;;3.10;99.90;;;;;;5072755;28;20025;-79
2020/12/26 01:07:01;;;;;;;12.98;5.97;;;3.20;99.90;;;;;;5053722;28;20029;-79
2020/12/26 01:09:27;;;;;;;11.05;6.32;;;3.20;99.90;;;;;;5072051;28;20021;-79
2020/12/26 01:11:53;;;;;;;9.13;5.53;;;3.20;99.90;;;;;;5056599;28;20411;-79
2020/12/26 01:14:19;;;;;;;13.32;6.07;;;3.20;99.90;;;;;;5053728;28;20476;-79
2020/12/26 01:16:51;;;;;;;11.60;5.63;;;3.20;99.90;;;;;;5053804;28;20042;-79
2020/12/26 01:19:19;;;;;;;13.75;6.47;;;3.20;99.90;;;;;;5053703;28;20074;-79
2020/12/26 01:21:52;;;;;;;11.57;6.95;;;3.20;99.90;;;;;;5053799;28;20111;-79
2020/12/26 01:24:21;;;;;;;12.65;5.93;;;3.20;99.90;;;;;;5056600;28;20104;-79
2020/12/26 01:26:48;;;;;;;9.02;5.78;;;3.20;99.90;;;;;;5053552;28;20048;-79
2020/12/26 01:29:14;;;;;;;14.13;5.80;;;3.20;99.90;;;;;;5054537;28;20021;-79
2020/12/26 01:31:40;;;;;;;8.70;5.47;;;3.30;99.90;;;;;;5071000;28;20036;-79
2020/12/26 01:34:06;;;;;;;12.80;6.75;;;3.30;99.90;;;;;;5054007;28;20100;-79
2020/12/26 01:36:32;;;;;;;11.43;6.35;;;3.30;99.90;;;;;;5071514;28;20112;-79
2020/12/26 01:38:57;;;;;;;15.73;6.80;;;3.30;99.90;;;;;;5053317;28;20095;-79
2020/12/26 01:41:23;;;;;;;9.95;6.30;;;3.30;99.90;;;;;;5072775;28;20013;-79
2020/12/26 01:43:54;;;;;;;12.52;5.82;;;3.30;99.90;;;;;;5071590;28;20561;-79
2020/12/26 01:46:21;;;;;;;10.95;6.35;;;3.30;99.90;;;;;;5053384;28;20048;-79
2020/12/26 01:48:46;;;;;;;10.13;6.50;;;3.30;99.90;;;;;;5071324;28;20025;-79
2020/12/26 01:51:12;;;;;;;10.15;5.85;;;3.30;99.90;;;;;;5071403;28;20520;-79
2020/12/26 01:53:37;;;;;;;14.90;6.45;;;3.30;99.90;;;;;;5053173;28;20444;-79
2020/12/26 01:56:03;;;;;;;17.05;6.70;;;3.40;99.90;;;;;;5071420;28;20020;-79
2020/12/26 01:58:34;;;;;;;9.48;6.35;;;3.40;99.90;;;;;;5058831;28;20059;-79
2020/12/26 02:01:00;;;;;;;13.77;6.07;;;3.40;99.90;;;;;;5054425;28;20017;-79
2020/12/26 02:03:25;;;;;;;14.25;7.25;;;3.40;99.90;;;;;;5071486;28;20464;-79
2020/12/26 02:05:53;;;;;;;9.75;5.63;;;3.30;99.90;;;;;;5072100;28;20036;-79
2020/12/26 02:08:19;;;;;;;10.50;5.30;;;3.30;99.90;;;;;;5058979;28;20025;-79
2020/12/26 02:10:44;;;;;;;10.98;6.07;;;3.30;99.90;;;;;;5074896;28;20035;-79
2020/12/26 02:13:10;;;;;;;10.27;6.22;;;3.30;99.90;;;;;;5057056;28;20027;-79
2020/12/26 02:15:35;;;;;;;14.25;5.90;;;3.30;99.90;;;;;;5074785;28;20025;-79
2020/12/26 02:18:01;;;;;;;13.45;5.90;;;3.30;99.90;;;;;;5056781;28;20044;-79
2020/12/26 02:20:26;;;;;;;12.23;6.53;;;3.30;99.90;;;;;;5081967;28;20031;-79
2020/12/26 02:22:52;;;;;;;12.25;6.38;;;3.40;99.90;;;;;;5056528;28;20021;-79
2020/12/26 02:25:18;;;;;;;10.05;5.82;;;3.40;99.90;;;;;;5059280;28;20131;-79
2020/12/26 02:27:43;;;;;;;14.82;5.65;;;3.40;99.90;;;;;;5067802;28;20073;-79
2020/12/26 02:30:09;;;;;;;14.10;6.93;;;3.30;99.90;;;;;;5074622;28;20020;-79
2020/12/26 02:32:34;;;;;;;9.82;5.97;;;3.30;99.90;;;;;;5074463;28;20391;-79
2020/12/26 02:35:00;;;;;;;12.15;5.95;;;3.30;99.90;;;;;;5056510;28;20056;-79
2020/12/26 02:37:25;;;;;;;9.45;5.05;;;3.30;99.90;;;;;;5074198;28;20029;-79
2020/12/26 02:39:52;;;;;;;9.40;4.75;;;3.30;99.90;;;;;;5056370;28;20480;-79
2020/12/26 02:42:17;;;;;;;7.35;4.60;;;3.40;99.90;;;;;;5056215;28;20055;-79
2020/12/26 02:44:43;;;;;;;9.80;5.57;;;3.40;99.90;;;;;;5075583;28;20024;-79
2020/12/26 02:47:08;;;;;;;8.10;4.35;;;3.50;99.90;;;;;;5056189;28;20025;-79
2020/12/26 02:49:34;;;;;;;8.38;4.13;;;3.50;99.90;;;;;;5056042;28;20094;-79
2020/12/26 02:51:59;;;;;;;10.13;4.32;;;3.50;99.90;;;;;;5056037;28;20032;-79
2020/12/26 02:54:25;;;;;;;8.73;3.88;;;3.60;99.90;;;;;;5077432;28;20039;-79
2020/12/26 02:56:50;;;;;;;11.40;5.18;;;3.60;99.90;;;;;;5058601;28;20140;-79
2020/12/26 02:59:16;;;;;;;9.30;4.10;;;3.60;99.90;;;;;;5056772;28;20578;-79
2020/12/26 03:01:41;;;;;;;7.20;3.42;;;3.60;99.90;;;;;;5055461;28;20016;-79
2020/12/26 03:04:07;;;;;;;7.90;4.00;;;3.60;99.90;;;;;;5073063;28;20020;-79
2020/12/26 03:06:33;;;;;;;9.93;3.50;;;3.70;99.90;;;;;;5073795;28;20538;-79
2020/12/26 03:08:58;;;;;;;9.55;4.35;;;3.70;99.90;;;;;;5078083;28;20030;-79
2020/12/26 03:11:24;;;;;;;11.10;5.07;;;3.70;99.90;;;;;;5073676;28;20372;-79
2020/12/26 03:13:50;;;;;;;7.95;4.63;;;3.70;99.90;;;;;;5055645;28;20476;-80
2020/12/26 03:16:17;;;;;;;11.25;5.43;;;3.60;99.90;;;;;;5073599;28;20017;-80
2020/12/26 03:18:42;;;;;;;8.15;5.18;;;3.60;99.90;;;;;;5055339;28;20020;-79
2020/12/26 03:21:09;;;;;;;10.00;5.60;;;3.60;99.90;;;;;;5073532;28;20503;-79
2020/12/26 03:23:35;;;;;;;10.05;5.53;;;3.50;99.90;;;;;;5058203;28;20460;-79
2020/12/26 03:26:01;;;;;;;7.20;5.20;;;3.50;99.90;;;;;;5055400;28;20023;-79
2020/12/26 03:28:26;;;;;;;12.63;6.63;;;3.50;99.90;;;;;;5055557;28;20021;-79
2020/12/26 03:30:52;;;;;;;9.43;5.65;;;3.40;99.90;;;;;;5056957;28;20224;-79
2020/12/26 03:33:17;;;;;;;11.13;5.65;;;3.40;99.90;;;;;;5055446;28;20099;-79
2020/12/26 03:35:43;;;;;;;14.07;6.78;;;3.40;99.90;;;;;;5073119;28;20059;-79
2020/12/26 03:38:09;;;;;;;11.05;5.75;;;3.40;99.90;;;;;;5073262;28;20016;-79
2020/12/26 03:40:34;;;;;;;11.85;6.00;;;3.30;99.90;;;;;;5072875;28;20070;-79
2020/12/26 03:43:00;;;;;;;13.52;5.88;;;3.30;99.90;;;;;;5055098;28;20058;-79
2020/12/26 03:45:25;;;;;;;6.85;4.72;;;3.30;99.90;;;;;;5055198;28;20020;-79
2020/12/26 03:47:51;;;;;;;7.82;4.60;;;3.20;99.90;;;;;;5072862;28;20468;-79
2020/12/26 03:50:16;;;;;;;9.68;5.53;;;3.20;99.90;;;;;;5072744;28;20045;-79
2020/12/26 03:52:42;;;;;;;15.05;5.85;;;3.20;99.90;;;;;;5055755;28;20021;-79
2020/12/26 03:55:07;;;;;;;13.23;5.60;;;3.10;99.90;;;;;;5073028;28;20016;-79
2020/12/26 03:57:33;;;;;;;8.93;5.20;;;3.10;99.90;;;;;;5072763;28;20039;-79
2020/12/26 03:59:58;;;;;;;8.00;4.55;;;3.10;99.90;;;;;;5055428;28;20027;-79
2020/12/26 04:02:24;;;;;;;11.35;5.53;;;3.10;99.90;;;;;;5072801;28;20070;-79
2020/12/26 04:04:49;;;;;;;7.68;4.68;;;3.10;99.90;;;;;;5054746;28;20032;-79
2020/12/26 04:07:15;;;;;;;13.48;4.43;;;3.00;99.90;;;;;;5063402;28;20070;-79
2020/12/26 04:09:40;;;;;;;7.40;4.88;;;3.00;99.90;;;;;;5072599;28;20379;-79
2020/12/26 04:12:06;;;;;;;13.60;5.68;;;3.00;99.90;;;;;;5055753;28;20479;-79
2020/12/26 04:14:32;;;;;;;11.38;5.70;;;3.10;99.90;;;;;;5054376;28;20024;-79
2020/12/26 04:16:58;;;;;;;8.80;5.10;;;3.10;99.90;;;;;;5054806;28;20422;-79
2020/12/26 04:19:25;;;;;;;9.38;5.40;;;3.10;99.90;;;;;;5054369;28;20016;-79
2020/12/26 04:21:51;;;;;;;6.78;4.72;;;3.10;99.90;;;;;;5072505;28;20025;-79
2020/12/26 04:24:16;;;;;;;10.00;4.28;;;3.20;99.90;;;;;;5054457;28;20020;-79
2020/12/26 04:26:42;;;;;;;17.13;5.05;;;3.10;99.90;;;;;;5054405;28;20051;-79
2020/12/26 04:29:08;;;;;;;11.13;4.57;;;3.20;99.90;;;;;;5053996;28;20048;-79
2020/12/26 04:31:34;;;;;;;8.27;4.47;;;3.20;99.90;;;;;;5072401;28;20109;-79
2020/12/26 04:34:00;;;;;;;11.20;4.40;;;3.10;99.90;;;;;;5067809;28;20444;-79
2020/12/26 04:36:25;;;;;;;10.60;5.38;;;3.20;99.90;;;;;;5054286;28;20048;-79
2020/12/26 04:38:51;;;;;;;11.27;5.05;;;3.10;99.90;;;;;;5054084;28;20476;-79
2020/12/26 04:41:18;;;;;;;11.02;5.18;;;3.10;99.90;;;;;;5055810;28;20025;-79
2020/12/26 04:43:44;;;;;;;7.65;5.25;;;3.10;99.90;;;;;;5054054;28;20050;-79
2020/12/26 04:46:18;;;;;;;11.93;5.05;;;3.10;99.90;;;;;;5072258;28;20115;-79
2020/12/26 04:48:54;;;;;;;8.43;4.97;;;3.10;99.90;;;;;;5071940;28;20372;-79
2020/12/26 04:51:20;;;;;;;9.07;5.28;;;3.10;99.90;;;;;;5060388;28;20051;-79
2020/12/26 04:53:52;;;;;;;10.82;5.38;;;3.10;99.90;;;;;;5056582;28;20024;-79
2020/12/26 04:56:20;;;;;;;7.40;5.22;;;3.00;99.90;;;;;;5054069;28;20365;-79
2020/12/26 04:58:48;;;;;;;13.23;6.07;;;3.00;99.90;;;;;;5071744;28;20384;-79
2020/12/26 05:01:15;;;;;;;12.10;5.43;;;3.00;99.90;;;;;;5071872;28;20025;-79
2020/12/26 05:03:42;;;;;;;13.95;5.65;;;3.00;99.90;;;;;;5072089;28;20055;-79
2020/12/26 05:06:09;;;;;;;12.00;7.38;;;3.00;99.90;;;;;;5054201;28;20074;-79
2020/12/26 05:08:35;;;;;;;13.23;6.68;;;3.00;99.90;;;;;;5053915;28;20074;-80
2020/12/26 05:11:01;;;;;;;14.20;6.47;;;3.00;99.90;;;;;;5053883;28;20021;-79
2020/12/26 05:13:26;;;;;;;11.10;6.63;;;3.00;99.90;;;;;;5054271;28;20074;-79
2020/12/26 05:15:53;;;;;;;9.85;6.97;;;3.00;99.90;;;;;;5053805;28;20025;-79
2020/12/26 05:18:19;;;;;;;14.23;7.05;;;3.00;99.90;;;;;;5059089;28;20452;-79
2020/12/26 05:20:45;;;;;;;12.70;7.10;;;2.90;99.90;;;;;;5053708;28;20074;-79
2020/12/26 05:23:12;;;;;;;17.08;7.72;;;3.00;99.90;;;;;;5071941;28;20032;-79
2020/12/26 05:25:42;;;;;;;17.02;7.03;;;3.00;99.90;;;;;;5053812;28;20024;-79
2020/12/26 05:28:21;;;;;;;12.68;7.15;;;3.00;99.90;;;;;;5062977;28;20073;-79
2020/12/26 05:30:49;;;;;;;15.52;7.47;;;3.00;99.90;;;;;;5071754;28;20373;-79
2020/12/26 05:33:15;;;;;;;12.25;7.30;;;2.90;99.90;;;;;;5053557;28;20067;-79
2020/12/26 05:35:41;;;;;;;13.07;7.38;;;2.90;99.90;;;;;;5053608;28;20044;-79
2020/12/26 05:38:25;;;;;;;14.95;7.93;;;2.90;99.90;;;;;;5053840;28;20021;-79
2020/12/26 05:41:01;;;;;;;12.70;7.57;;;2.90;99.90;;;;;;5054366;28;20048;-79
2020/12/26 05:43:31;;;;;;;15.68;8.60;;;2.90;99.90;;;;;;5075314;28;20013;-79
2020/12/26 05:45:57;;;;;;;13.65;8.80;;;2.90;99.90;;;;;;5075422;28;20013;-79
2020/12/26 05:48:25;;;;;;;11.82;8.32;;;2.90;99.90;;;;;;5075464;28;20071;-79
2020/12/26 05:50:57;;;;;;;14.75;9.63;;;2.90;99.90;;;;;;5080198;28;20080;-79
2020/12/26 05:53:24;;;;;;;14.98;9.27;;;2.90;99.90;;;;;;5065494;28;20387;-79
2020/12/26 05:55:50;;;;;;;16.20;10.13;;;2.90;99.90;;;;;;5057018;28;20063;-79
2020/12/26 05:58:26;;;;;;;17.25;11.32;;;2.90;99.90;;;;;;5067064;28;20350;-79
2020/12/26 06:00:55;;;;;;;17.20;10.32;;;2.90;99.90;;;;;;5074868;28;20025;-79
2020/12/26 06:03:28;;;;;;;21.37;11.50;;;2.90;99.90;;;;;;5075654;28;20498;-79
2020/12/26 06:05:57;;;;;;;17.73;10.43;;;2.90;99.90;;;;;;5057631;28;20032;-79
2020/12/26 06:08:24;;;;;;;15.90;11.27;;;2.90;99.90;;;;;;5067608;28;20017;-79
2020/12/26 06:10:49;;;;;;;18.85;10.82;;;2.90;99.90;;;;;;5074861;28;20029;-79
2020/12/26 06:13:16;;;;;;;14.43;10.70;;;2.90;99.90;;;;;;5056988;28;20494;-79
2020/12/26 06:15:48;;;;;;;22.17;11.65;;;2.90;99.90;;;;;;5087362;28;20383;-79
2020/12/26 06:18:15;;;;;;;16.23;11.57;;;2.90;99.90;;;;;;5057970;28;20024;-79
2020/12/26 06:20:42;;;;;;;20.77;11.35;;;2.80;99.90;;;;;;5056914;28;20112;-79
2020/12/26 06:23:14;;;;;;;21.08;11.70;;;2.80;99.90;;;;;;5071084;28;20361;-79
2020/12/26 06:25:42;;;;;;;18.92;12.27;;;2.80;99.90;;;;;;5057683;28;20052;-79
2020/12/26 06:28:25;;;;;;;20.35;12.13;;;2.90;99.90;;;;;;5056801;28;20043;-79
2020/12/26 06:30:53;;;;;;;17.73;12.45;;;2.90;99.90;;;;;;5057548;28;20384;-79
2020/12/26 06:33:22;;;;;;;23.88;13.75;;;2.90;99.90;;;;;;5057934;28;20024;-79
2020/12/26 06:35:48;;;;;;;18.08;12.65;;;2.80;99.90;;;;;;5077241;28;20426;-79
2020/12/26 06:38:19;;;;;;;18.27;12.80;;;2.80;99.90;;;;;;5062099;28;20021;-79
2020/12/26 06:40:55;;;;;;;19.23;13.55;;;2.80;99.90;;;;;;5059260;28;20020;-79
2020/12/26 06:43:53;;;;;;;23.00;13.13;;;2.80;99.90;;;;;;5074519;28;20058;-79
2020/12/26 06:46:22;;;;;;;17.83;12.32;;;2.70;99.90;;;;;;5012477;28;20502;-79
2020/12/26 06:48:58;;;;;;;20.55;13.18;;;2.70;99.90;;;;;;5056296;28;20028;-79
2020/12/26 06:51:25;;;;;;;23.90;13.48;;;2.70;99.90;;;;;;5074369;28;20028;-79
2020/12/26 06:53:51;;;;;;;20.48;13.38;;;2.70;99.90;;;;;;5055637;28;20031;-79
2020/12/26 06:56:35;;;;;;;17.48;12.70;;;2.70;99.90;;;;;;5058803;28;20028;-79
2020/12/26 06:59:05;;;;;;;23.20;12.60;;;2.70;99.90;;;;;;5073391;28;20020;-79
2020/12/26 07:01:31;;;;;;;27.55;13.80;;;2.70;99.90;;;;;;5073299;28;20074;-79
2020/12/26 07:04:14;;;;;;;18.88;13.18;;;2.70;99.90;;;;;;5056193;28;20020;-79
2020/12/26 07:06:45;;;;;;;19.48;13.45;;;2.80;99.90;;;;;;5092516;28;20561;-79
2020/12/26 07:09:12;;;;;;;22.95;12.32;;;2.80;99.90;;;;;;5076010;28;20035;-79
2020/12/26 07:11:52;;;;;;;18.60;12.70;;;2.80;99.90;;;;;;5067748;28;20070;-79
2020/12/26 07:14:49;;;;;;;19.42;11.85;;;2.80;99.90;;;;;;5065488;28;20059;-79
2020/12/26 07:17:15;;;;;;;18.20;11.85;;;2.80;99.90;;;;;;5082545;28;20020;-79
2020/12/26 07:19:47;;;;;;;23.13;11.95;;;2.80;99.90;;;;;;5060236;28;20111;-79
2020/12/26 07:22:20;;;;;;;21.17;12.00;;;2.80;99.90;;;;;;5084285;28;20099;-79
2020/12/26 07:24:49;;;;;;;21.30;11.32;;;2.80;99.90;;;;;;5064007;28;20549;-79
2020/12/26 07:27:23;;;;;;;18.13;12.00;;;2.80;99.90;;;;;;5064795;28;20039;-79
2020/12/26 07:29:54;;;;;;;14.73;10.07;;;2.80;99.90;;;;;;5081148;28;20032;-79
2020/12/26 07:32:40;;;;;;;20.15;11.27;;;2.90;99.90;;;;;;5064275;28;20030;-79
2020/12/26 07:35:11;;;;;;;19.42;10.13;;;2.90;99.90;;;;;;5062913;28;20558;-79
2020/12/26 07:37:37;;;;;;;18.40;10.18;;;2.90;99.90;;;;;;5056013;28;20032;-79
2020/12/26 07:40:03;;;;;;;20.15;12.35;;;2.90;99.90;;;;;;5080808;28;20101;-79
2020/12/26 07:42:31;;;;;;;15.32;9.98;;;2.90;99.90;;;;;;5063158;28;20067;-79
2020/12/26 07:44:57;;;;;;;16.75;10.55;;;2.90;99.90;;;;;;5062439;28;20024;-79
2020/12/26 07:47:23;;;;;;;15.60;9.68;;;2.90;99.90;;;;;;5076396;28;20433;-79
2020/12/26 07:49:58;;;;;;;21.10;10.63;;;2.90;99.90;;;;;;5084256;28;20530;-79
2020/12/26 07:52:24;;;;;;;18.25;10.55;;;2.90;99.90;;;;;;5084564;28;20045;-79
2020/12/26 07:55:00;;;;;;;16.38;10.05;;;3.00;99.90;;;;;;5087465;28;20031;-79
2020/12/26 07:57:26;;;;;;;16.25;9.10;;;2.90;99.90;;;;;;5075665;28;20031;-79
2020/12/26 07:59:52;;;;;;;15.68;9.50;;;2.90;99.90;;;;;;5094009;28;20024;-78
2020/12/26 08:02:18;;;;;;;15.35;9.48;;;2.90;99.90;;;;;;5075471;28;20020;-79
2020/12/26 08:04:44;;;;;;;16.55;9.00;;;3.00;99.90;;;;;;5090910;28;20027;-79
2020/12/26 08:07:14;;;;;;;18.40;8.65;;;3.00;99.90;;;;;;5055540;28;20024;-79
2020/12/26 08:09:54;;;;;;;16.50;8.73;;;3.00;99.90;;;;;;5065944;28;20092;-78
2020/12/26 08:12:21;;;;;;;15.27;7.85;;;3.00;99.90;;;;;;5067294;28;20491;-79
2020/12/26 08:14:57;;;;;;;20.00;8.32;;;3.00;99.90;;;;;;5084266;28;20482;-78
2020/12/26 08:17:24;;;;;;;13.57;8.73;;;3.00;99.90;;;;;;5062347;28;20078;-78
2020/12/26 08:19:57;;;;;;;13.10;8.00;;;3.00;99.90;;;;;;5081201;28;20026;-79
2020/12/26 08:22:22;;;;;;;13.27;7.70;;;3.10;99.90;;;;;;5079014;28;20583;-79
2020/12/26 08:24:48;;;;;;;15.18;7.75;;;3.00;99.90;;;;;;5060236;28;20138;-78
2020/12/26 08:27:16;;;;;;;10.30;7.47;;;3.00;99.90;;;;;;5060420;28;20028;-79
2020/12/26 08:29:41;;;;;;;11.70;7.75;;;3.10;99.90;;;;;;5062356;28;20025;-79
2020/12/26 08:32:09;;;;;;;17.65;7.40;;;3.10;99.90;;;;;;5082663;28;20384;-79
2020/12/26 08:34:57;;;;;;;11.73;7.45;;;3.10;99.90;;;;;;5063963;28;20063;-78
2020/12/26 08:37:27;;;;;;;13.43;6.57;;;3.10;99.90;;;;;;5083087;28;20081;-78
2020/12/26 08:40:00;;;;;;;12.05;6.85;;;3.20;99.90;;;;;;5072849;28;20066;-79
2020/12/26 08:42:28;;;;;;;12.07;6.47;;;3.20;99.90;;;;;;5056838;28;20484;-78
2020/12/26 08:44:53;;;;;;;13.85;7.43;;;3.20;99.90;;;;;;5081278;28;20537;-78
2020/12/26 08:47:31;;;;;;;10.13;6.20;;;3.20;99.90;;;;;;5091343;28;20028;-79
2020/12/26 08:49:58;;;;;;;11.88;6.53;;;3.30;99.90;;;;;;5078697;28;20055;-78
2020/12/26 08:52:27;;;;;;;13.02;7.20;;;3.30;99.90;;;;;;5087921;28;20028;-78
2020/12/26 08:55:04;;;;;;;11.95;6.75;;;3.30;99.90;;;;;;5072475;28;20082;-78
2020/12/26 08:57:30;;;;;;;10.93;6.78;;;3.30;99.90;;;;;;5055574;28;20020;-79
2020/12/26 09:00:17;;;;;;;14.32;6.45;;;3.30;99.90;;;;;;5073690;28;20013;-79
2020/12/26 09:02:50;;;;;;;12.93;6.72;;;3.30;99.90;;;;;;5071782;28;20708;-79
2020/12/26 09:05:20;;;;;;;13.55;5.93;;;3.30;99.90;;;;;;5089028;28;20523;-79
2020/12/26 09:07:46;;;;;;;13.27;6.53;;;3.30;99.90;;;;;;5073512;28;20044;-78
2020/12/26 09:10:12;;;;;;;10.77;6.63;;;3.30;99.90;;;;;;5055584;28;20055;-79
2020/12/26 09:12:37;;;;;;;11.75;6.30;;;3.30;99.90;;;;;;5055345;28;20031;-79
2020/12/26 09:15:03;;;;;;;10.95;6.32;;;3.30;99.90;;;;;;5055485;28;20028;-79
2020/12/26 09:17:29;;;;;;;11.35;5.85;;;3.30;99.90;;;;;;5064114;28;20073;-79
2020/12/26 09:19:58;;;;;;;9.05;5.55;;;3.30;99.90;;;;;;5069411;28;20020;-79
2020/12/26 09:22:28;;;;;;;11.93;5.80;;;3.40;99.90;;;;;;5061643;28;20025;-79
2020/12/26 09:24:53;;;;;;;9.60;5.63;;;3.40;99.90;;;;;;5091192;28;20411;-79
2020/12/26 09:27:20;;;;;;;15.20;6.72;;;3.40;99.90;;;;;;5096839;28;20020;-79
2020/12/26 09:29:45;;;;;;;10.30;5.35;;;3.50;99.90;;;;;;5078703;28;20046;-78
2020/12/26 09:32:11;;;;;;;8.77;5.18;;;3.50;99.90;;;;;;5071632;28;20543;-79
2020/12/26 09:34:37;;;;;;;10.35;5.10;;;3.60;99.90;;;;;;5067172;28;20028;-79
2020/12/26 09:37:09;;;;;;;8.90;5.05;;;3.60;99.90;;;;;;5072613;28;20059;-79
2020/12/26 09:39:36;;;;;;;8.80;5.50;;;3.60;99.90;;;;;;5078666;28;20550;-79
2020/12/26 09:42:02;;;;;;;11.05;5.18;;;3.60;99.90;;;;;;5078470;28;20024;-79
2020/12/26 09:44:28;;;;;;;7.70;4.40;;;3.60;99.90;;;;;;5096598;28;20054;-79
2020/12/26 09:47:02;;;;;;;11.98;5.20;;;3.50;99.90;;;;;;5078385;28;20040;-79
2020/12/26 09:49:28;;;;;;;6.75;4.30;;;3.60;99.90;;;;;;5078018;28;20044;-79
2020/12/26 09:51:54;;;;;;;6.32;4.43;;;3.60;99.90;;;;;;5058810;28;20438;-79
2020/12/26 09:54:19;;;;;;;8.07;4.43;;;3.70;99.90;;;;;;5058001;28;20056;-79
2020/12/26 09:56:45;;;;;;;13.65;4.43;;;3.70;99.90;;;;;;5059065;28;20060;-79
2020/12/26 09:59:11;;;;;;;7.85;3.92;;;3.80;99.90;;;;;;5074793;28;20034;-79
2020/12/26 10:01:38;;;;;;;7.50;3.70;;;3.80;99.90;;;;;;5062449;28;20116;-79
2020/12/26 10:04:04;;;;;;;8.73;4.18;;;3.90;99.90;;;;;;5069869;28;20115;-79
2020/12/26 10:06:29;;;;;;;8.02;4.60;;;3.90;99.90;;;;;;5068135;28;20142;-79
2020/12/26 10:08:55;;;;;;;5.43;3.78;;;3.90;99.90;;;;;;5061206;28;20418;-79
2020/12/26 10:11:20;;;;;;;9.60;3.47;;;3.90;99.90;;;;;;5074996;28;20066;-79
2020/12/26 10:13:47;;;;;;;8.23;4.18;;;3.90;99.90;;;;;;5061388;28;20029;-79
2020/12/26 10:16:16;;;;;;;6.32;3.63;;;3.90;99.90;;;;;;5074661;28;20021;-79
2020/12/26 10:18:41;;;;;;;6.75;3.42;;;4.00;99.90;;;;;;5059514;28;20395;-79
2020/12/26 10:21:07;;;;;;;5.38;3.20;;;4.00;99.90;;;;;;5065342;28;20021;-79
2020/12/26 10:23:32;;;;;;;7.05;3.92;;;4.00;99.90;;;;;;5058360;28;20035;-79
2020/12/26 10:26:05;;;;;;;14.27;3.35;;;4.00;99.90;;;;;;5056715;28;20032;-79
2020/12/26 10:28:32;;;;;;;5.85;3.05;;;4.00;99.90;;;;;;5083399;28;20028;-79
2020/12/26 10:30:57;;;;;;;8.60;3.15;;;4.00;99.90;;;;;;5059987;28;20020;-79
2020/12/26 10:33:23;;;;;;;6.10;2.80;;;4.10;99.90;;;;;;5056244;28;20034;-79
2020/12/26 10:35:48;;;;;;;8.35;3.67;;;4.10;99.90;;;;;;5058422;28;20043;-79
2020/12/26 10:38:14;;;;;;;11.68;3.38;;;4.10;99.80;;;;;;5068151;28;20013;-79
2020/12/26 10:40:39;;;;;;;7.25;3.63;;;4.20;99.90;;;;;;5063071;28;20066;-79
2020/12/26 10:43:05;;;;;;;7.47;2.78;;;4.10;99.80;;;;;;5081575;28;20013;-79
2020/12/26 10:45:30;;;;;;;5.53;2.72;;;4.10;99.80;;;;;;5066612;28;20024;-78
2020/12/26 10:47:56;;;;;;;10.95;3.45;;;4.10;99.80;;;;;;5064785;28;20491;-79
2020/12/26 10:50:21;;;;;;;4.65;2.58;;;4.20;99.90;;;;;;5066353;28;20093;-79
2020/12/26 10:52:47;;;;;;;8.35;3.05;;;4.20;99.80;;;;;;5058867;28;20039;-79
2020/12/26 10:55:16;;;;;;;12.57;2.85;;;4.30;99.60;;;;;;5058839;28;20439;-79
2020/12/26 10:57:43;;;;;;;5.97;2.53;;;4.30;99.50;;;;;;5068183;28;20032;-79
2020/12/26 11:00:10;;;;;;;6.15;3.88;;;4.20;99.40;;;;;;5074172;28;20055;-79
2020/12/26 11:02:35;;;;;;;7.60;3.10;;;4.30;99.50;;;;;;5058531;28;20016;-79
2020/12/26 11:05:01;;;;;;;7.65;3.53;;;4.30;99.50;;;;;;5088151;28;20357;-79
2020/12/26 11:07:26;;;;;;;6.07;2.50;;;4.30;99.40;;;;;;5056811;28;20530;-79
2020/12/26 11:09:52;;;;;;;6.68;3.42;;;4.40;99.50;;;;;;5057024;28;20044;-79
2020/12/26 11:12:17;;;;;;;6.78;2.47;;;4.40;99.30;;;;;;5083837;28;20019;-79
2020/12/26 11:14:43;;;;;;;6.88;2.97;;;4.40;99.30;;;;;;5060211;28;20032;-79
2020/12/26 11:17:08;;;;;;;11.50;3.00;;;4.40;99.40;;;;;;5061837;28;20024;-79
2020/12/26 11:19:34;;;;;;;6.75;2.53;;;4.40;99.30;;;;;;5093198;28;20024;-79
2020/12/26 11:21:59;;;;;;;5.57;2.67;;;4.40;99.20;;;;;;5069952;28;20080;-79
2020/12/26 11:24:25;;;;;;;8.02;2.38;;;4.40;99.40;;;;;;5055649;28;20498;-79
2020/12/26 11:26:50;;;;;;;6.47;2.70;;;4.40;99.30;;;;;;5073803;28;20368;-79
2020/12/26 11:29:16;;;;;;;6.72;2.90;;;4.40;99.40;;;;;;5055881;28;20074;-79
2020/12/26 11:31:42;;;;;;;6.97;2.40;;;4.40;99.30;;;;;;5065847;28;20024;-79
2020/12/26 11:34:10;;;;;;;9.88;2.53;;;4.40;99.10;;;;;;5080245;28;20025;-79
2020/12/26 11:36:35;;;;;;;5.88;2.25;;;4.40;99.20;;;;;;5073487;28;20017;-79
2020/12/26 11:39:02;;;;;;;6.25;2.13;;;4.50;99.20;;;;;;5073458;28;20498;-79
2020/12/26 11:41:28;;;;;;;4.32;2.28;;;4.50;99.30;;;;;;5073700;28;20021;-79
2020/12/26 11:43:55;;;;;;;6.32;2.65;;;4.50;99.30;;;;;;5078893;28;20070;-79
2020/12/26 11:46:21;;;;;;;6.50;2.50;;;4.60;99.30;;;;;;5064516;28;20020;-79
2020/12/26 11:48:46;;;;;;;7.97;2.15;;;4.60;99.30;;;;;;5056942;28;20036;-79
2020/12/26 11:51:12;;;;;;;5.47;2.20;;;4.60;98.90;;;;;;5063006;28;20055;-79
2020/12/26 11:53:39;;;;;;;7.93;2.35;;;4.60;99.20;;;;;;5084672;28;20036;-78
2020/12/26 11:56:09;;;;;;;6.43;1.90;;;4.70;99.10;;;;;;5067908;28;20020;-80
2020/12/26 11:58:35;;;;;;;5.43;1.95;;;4.70;99.10;;;;;;5065880;28;20021;-80
2020/12/26 12:01:01;;;;;;;7.53;2.42;;;4.70;99.00;;;;;;5070087;28;20387;-80
2020/12/26 12:03:27;;;;;;;5.22;2.20;;;4.70;98.70;;;;;;5086053;28;20025;-78
2020/12/26 12:05:52;;;;;;;4.97;2.15;;;4.70;98.50;;;;;;5074775;28;20021;-79
2020/12/26 12:08:18;;;;;;;8.38;3.70;;;4.70;98.40;;;;;;5077996;28;20024;-80
2020/12/26 12:10:43;;;;;;;7.10;2.95;;;4.70;98.30;;;;;;5081230;28;20051;-80
2020/12/26 12:13:09;;;;;;;7.50;2.78;;;4.70;98.60;;;;;;5057965;28;20028;-80
2020/12/26 12:15:34;;;;;;;7.55;3.20;;;4.70;98.50;;;;;;5070628;28;20095;-80
2020/12/26 12:18:00;;;;;;;5.95;2.17;;;4.70;98.30;;;;;;5083150;28;20047;-80
2020/12/26 12:20:28;;;;;;;3.40;2.13;;;4.70;98.30;;;;;;5067016;28;20013;-81
2020/12/26 12:22:54;;;;;;;5.45;2.30;;;4.80;98.70;;;;;;5066377;28;20467;-80
2020/12/26 12:25:20;;;;;;;4.43;2.08;;;4.80;98.40;;;;;;5054246;28;20529;-81
2020/12/26 12:27:46;;;;;;;5.05;2.33;;;4.80;98.10;;;;;;5074042;28;20031;-80
2020/12/26 12:30:12;;;;;;;6.40;2.50;;;4.80;97.90;;;;;;5060094;28;20024;-80
2020/12/26 12:32:38;;;;;;;4.60;2.67;;;4.80;98.00;;;;;;5061027;28;20078;-80
2020/12/26 12:35:03;;;;;;;6.45;2.42;;;4.90;98.40;;;;;;5074195;28;20024;-80
2020/12/26 12:37:29;;;;;;;3.88;2.30;;;4.90;98.10;;;;;;5071636;28;20043;-80
2020/12/26 12:39:54;;;;;;;5.35;2.20;;;4.90;97.80;;;;;;5056035;28;20540;-80
2020/12/26 12:42:20;;;;;;;7.68;2.65;;;4.90;98.00;;;;;;5072653;28;20420;-79
2020/12/26 12:44:46;;;;;;;8.05;2.80;;;5.00;97.80;;;;;;5071447;28;20376;-80
2020/12/26 12:47:11;;;;;;;5.57;2.63;;;5.00;97.90;;;;;;5057766;28;20472;-80
2020/12/26 12:49:37;;;;;;;8.93;3.55;;;5.00;97.80;;;;;;5054225;28;20052;-80